Fisty, Kentucky
Current Conditions -  °F | °C
As of 10:53 PM on Saturday 24 Jan 2015 (Local Time) from KJKL Reporting Station
Haze Haze  
Wind Chill: 27°   Ceiling: Unl
Heat Index: 32°   Visibility: 6mi
Dew Point: 29°   Wind: 5mph
Humidity: 88%   Direction: 220°SW
Pressure: 29.85"   Gusts: NA
Location:  37.33°N, 83.1°W
Report Text: KJKL 250353Z AUTO 22004KT 6SM BR CLR 00/M02 A2985 RMK AO2 SLP120 T00001017
Loading
Personal Weather Stations






























Interactive Weather Map New forecast layout! Learn more

10-Day Weather Forecast

Advertisements
Track Severe Weather on mobile